sensor_id;sensor_type;location;lat;lon;timestamp;P1;durP1;ratioP1;P2;durP2;ratioP2
20138;SDS011;10230;51.502;10.800;2022-07-19T00:01:48;2.75;;;2.13;;
20138;SDS011;10230;51.502;10.800;2022-07-19T00:04:14;5.15;;;2.80;;
20138;SDS011;10230;51.502;10.800;2022-07-19T00:06:40;3.42;;;2.40;;
20138;SDS011;10230;51.502;10.800;2022-07-19T00:09:06;3.88;;;2.30;;
20138;SDS011;10230;51.502;10.800;2022-07-19T00:11:33;3.22;;;2.05;;
20138;SDS011;10230;51.502;10.800;2022-07-19T00:13:59;7.82;;;2.47;;
20138;SDS011;10230;51.502;10.800;2022-07-19T00:16:25;6.10;;;2.55;;
20138;SDS011;10230;51.502;10.800;2022-07-19T00:18:51;4.60;;;2.42;;
20138;SDS011;10230;51.502;10.800;2022-07-19T00:21:17;4.35;;;2.80;;
20138;SDS011;10230;51.502;10.800;2022-07-19T00:23:43;3.85;;;2.00;;
20138;SDS011;10230;51.502;10.800;2022-07-19T00:26:09;5.00;;;2.42;;
20138;SDS011;10230;51.502;10.800;2022-07-19T00:28:36;3.70;;;2.08;;
20138;SDS011;10230;51.502;10.800;2022-07-19T00:31:02;4.50;;;2.13;;
20138;SDS011;10230;51.502;10.800;2022-07-19T00:33:29;6.10;;;1.85;;
20138;SDS011;10230;51.502;10.800;2022-07-19T00:35:55;4.70;;;2.42;;
20138;SDS011;10230;51.502;10.800;2022-07-19T00:38:21;2.22;;;1.98;;
20138;SDS011;10230;51.502;10.800;2022-07-19T00:40:47;3.72;;;1.90;;
20138;SDS011;10230;51.502;10.800;2022-07-19T00:43:14;5.72;;;2.13;;
20138;SDS011;10230;51.502;10.800;2022-07-19T00:45:40;5.68;;;2.28;;
20138;SDS011;10230;51.502;10.800;2022-07-19T00:48:06;3.67;;;2.05;;
20138;SDS011;10230;51.502;10.800;2022-07-19T00:50:32;6.57;;;2.30;;
20138;SDS011;10230;51.502;10.800;2022-07-19T00:52:59;6.45;;;2.20;;
20138;SDS011;10230;51.502;10.800;2022-07-19T00:55:27;3.63;;;2.58;;
20138;SDS011;10230;51.502;10.800;2022-07-19T00:57:55;5.43;;;2.95;;
20138;SDS011;10230;51.502;10.800;2022-07-19T01:00:21;5.53;;;2.72;;
20138;SDS011;10230;51.502;10.800;2022-07-19T01:02:47;5.65;;;3.45;;
20138;SDS011;10230;51.502;10.800;2022-07-19T01:05:13;3.42;;;2.45;;
20138;SDS011;10230;51.502;10.800;2022-07-19T01:07:40;5.70;;;3.20;;
20138;SDS011;10230;51.502;10.800;2022-07-19T01:10:07;4.80;;;2.50;;
20138;SDS011;10230;51.502;10.800;2022-07-19T01:12:34;4.28;;;2.30;;
20138;SDS011;10230;51.502;10.800;2022-07-19T01:15:00;4.38;;;2.58;;
20138;SDS011;10230;51.502;10.800;2022-07-19T01:17:27;4.95;;;2.30;;
20138;SDS011;10230;51.502;10.800;2022-07-19T01:19:54;3.95;;;2.60;;
20138;SDS011;10230;51.502;10.800;2022-07-19T01:22:21;4.65;;;2.60;;
20138;SDS011;10230;51.502;10.800;2022-07-19T01:24:47;7.25;;;2.70;;
20138;SDS011;10230;51.502;10.800;2022-07-19T01:27:13;2.53;;;2.00;;
20138;SDS011;10230;51.502;10.800;2022-07-19T01:29:39;5.30;;;2.25;;
20138;SDS011;10230;51.502;10.800;2022-07-19T01:32:05;4.75;;;2.40;;
20138;SDS011;10230;51.502;10.800;2022-07-19T01:34:32;4.60;;;2.70;;
20138;SDS011;10230;51.502;10.800;2022-07-19T01:36:58;5.22;;;2.50;;
20138;SDS011;10230;51.502;10.800;2022-07-19T01:39:24;4.20;;;2.58;;
20138;SDS011;10230;51.502;10.800;2022-07-19T01:41:50;3.70;;;2.55;;
20138;SDS011;10230;51.502;10.800;2022-07-19T01:44:16;4.65;;;2.60;;
20138;SDS011;10230;51.502;10.800;2022-07-19T01:46:42;4.57;;;2.35;;
20138;SDS011;10230;51.502;10.800;2022-07-19T01:49:08;3.10;;;2.25;;
20138;SDS011;10230;51.502;10.800;2022-07-19T01:51:34;3.83;;;2.35;;
20138;SDS011;10230;51.502;10.800;2022-07-19T01:54:00;3.17;;;2.22;;
20138;SDS011;10230;51.502;10.800;2022-07-19T01:56:26;4.82;;;2.25;;
20138;SDS011;10230;51.502;10.800;2022-07-19T01:58:52;7.00;;;2.55;;
20138;SDS011;10230;51.502;10.800;2022-07-19T02:01:18;4.03;;;2.65;;
20138;SDS011;10230;51.502;10.800;2022-07-19T02:03:44;2.15;;;1.77;;
20138;SDS011;10230;51.502;10.800;2022-07-19T02:06:10;3.50;;;2.20;;
20138;SDS011;10230;51.502;10.800;2022-07-19T02:08:36;4.60;;;2.40;;
20138;SDS011;10230;51.502;10.800;2022-07-19T02:11:04;4.57;;;2.20;;
20138;SDS011;10230;51.502;10.800;2022-07-19T02:13:50;3.10;;;2.45;;
20138;SDS011;10230;51.502;10.800;2022-07-19T02:16:16;4.90;;;2.40;;
20138;SDS011;10230;51.502;10.800;2022-07-19T02:18:42;5.50;;;2.47;;
20138;SDS011;10230;51.502;10.800;2022-07-19T02:21:08;2.55;;;1.83;;
20138;SDS011;10230;51.502;10.800;2022-07-19T02:23:34;5.22;;;2.20;;
20138;SDS011;10230;51.502;10.800;2022-07-19T02:26:00;3.75;;;2.08;;
20138;SDS011;10230;51.502;10.800;2022-07-19T02:28:27;2.65;;;2.28;;
20138;SDS011;10230;51.502;10.800;2022-07-19T02:30:52;3.70;;;2.10;;
20138;SDS011;10230;51.502;10.800;2022-07-19T02:33:18;4.13;;;2.40;;
20138;SDS011;10230;51.502;10.800;2022-07-19T02:35:44;4.68;;;2.00;;
20138;SDS011;10230;51.502;10.800;2022-07-19T02:38:10;4.30;;;2.00;;
20138;SDS011;10230;51.502;10.800;2022-07-19T02:40:36;5.55;;;2.10;;
20138;SDS011;10230;51.502;10.800;2022-07-19T02:43:02;4.00;;;1.90;;
20138;SDS011;10230;51.502;10.800;2022-07-19T02:45:28;3.90;;;1.88;;
20138;SDS011;10230;51.502;10.800;2022-07-19T02:47:54;3.92;;;2.13;;
20138;SDS011;10230;51.502;10.800;2022-07-19T02:50:20;3.38;;;2.10;;
20138;SDS011;10230;51.502;10.800;2022-07-19T02:52:46;6.35;;;1.92;;
20138;SDS011;10230;51.502;10.800;2022-07-19T02:55:12;2.38;;;1.80;;
20138;SDS011;10230;51.502;10.800;2022-07-19T02:57:38;6.22;;;2.20;;
20138;SDS011;10230;51.502;10.800;2022-07-19T03:00:05;6.65;;;2.00;;
20138;SDS011;10230;51.502;10.800;2022-07-19T03:02:34;4.90;;;1.90;;
20138;SDS011;10230;51.502;10.800;2022-07-19T03:05:00;4.90;;;1.60;;
20138;SDS011;10230;51.502;10.800;2022-07-19T03:07:26;5.22;;;2.13;;
20138;SDS011;10230;51.502;10.800;2022-07-19T03:09:52;2.85;;;2.47;;
20138;SDS011;10230;51.502;10.800;2022-07-19T03:12:36;3.28;;;2.75;;
20138;SDS011;10230;51.502;10.800;2022-07-19T03:15:03;4.75;;;2.00;;
20138;SDS011;10230;51.502;10.800;2022-07-19T03:17:29;4.97;;;3.97;;
20138;SDS011;10230;51.502;10.800;2022-07-19T03:20:04;4.88;;;3.17;;
20138;SDS011;10230;51.502;10.800;2022-07-19T03:22:35;3.80;;;2.00;;
20138;SDS011;10230;51.502;10.800;2022-07-19T03:25:01;5.47;;;1.90;;
20138;SDS011;10230;51.502;10.800;2022-07-19T03:27:27;5.63;;;2.80;;
20138;SDS011;10230;51.502;10.800;2022-07-19T03:29:53;4.15;;;2.28;;
20138;SDS011;10230;51.502;10.800;2022-07-19T03:33:01;3.55;;;2.03;;
20138;SDS011;10230;51.502;10.800;2022-07-19T03:36:11;3.38;;;2.10;;
20138;SDS011;10230;51.502;10.800;2022-07-19T03:39:07;5.47;;;2.15;;
20138;SDS011;10230;51.502;10.800;2022-07-19T03:41:33;4.22;;;2.58;;
20138;SDS011;10230;51.502;10.800;2022-07-19T03:43:59;3.30;;;1.83;;
20138;SDS011;10230;51.502;10.800;2022-07-19T03:46:25;4.93;;;2.10;;
20138;SDS011;10230;51.502;10.800;2022-07-19T03:48:53;3.35;;;2.03;;
20138;SDS011;10230;51.502;10.800;2022-07-19T03:51:19;5.13;;;2.13;;
20138;SDS011;10230;51.502;10.800;2022-07-19T03:53:45;2.92;;;1.80;;
20138;SDS011;10230;51.502;10.800;2022-07-19T03:56:11;4.03;;;2.15;;
20138;SDS011;10230;51.502;10.800;2022-07-19T03:58:38;2.72;;;1.92;;
20138;SDS011;10230;51.502;10.800;2022-07-19T04:01:04;3.28;;;1.98;;
20138;SDS011;10230;51.502;10.800;2022-07-19T04:03:35;4.10;;;2.40;;
20138;SDS011;10230;51.502;10.800;2022-07-19T04:06:01;7.07;;;3.60;;
20138;SDS011;10230;51.502;10.800;2022-07-19T04:08:27;3.95;;;3.10;;
20138;SDS011;10230;51.502;10.800;2022-07-19T04:10:53;4.20;;;2.42;;
20138;SDS011;10230;51.502;10.800;2022-07-19T04:13:50;4.97;;;2.38;;
20138;SDS011;10230;51.502;10.800;2022-07-19T04:16:29;5.78;;;2.20;;
20138;SDS011;10230;51.502;10.800;2022-07-19T04:19:13;2.40;;;1.70;;
20138;SDS011;10230;51.502;10.800;2022-07-19T04:22:01;2.75;;;2.35;;
20138;SDS011;10230;51.502;10.800;2022-07-19T04:25:06;3.88;;;2.70;;
20138;SDS011;10230;51.502;10.800;2022-07-19T04:28:14;2.70;;;1.70;;
20138;SDS011;10230;51.502;10.800;2022-07-19T04:31:22;2.25;;;1.75;;
20138;SDS011;10230;51.502;10.800;2022-07-19T04:34:31;2.63;;;2.25;;
20138;SDS011;10230;51.502;10.800;2022-07-19T04:37:41;5.65;;;2.13;;
20138;SDS011;10230;51.502;10.800;2022-07-19T04:40:50;7.95;;;2.90;;
20138;SDS011;10230;51.502;10.800;2022-07-19T04:44:00;5.03;;;2.50;;
20138;SDS011;10230;51.502;10.800;2022-07-19T04:47:10;3.10;;;2.35;;
20138;SDS011;10230;51.502;10.800;2022-07-19T04:50:29;4.22;;;2.15;;
20138;SDS011;10230;51.502;10.800;2022-07-19T04:53:39;5.15;;;2.50;;
20138;SDS011;10230;51.502;10.800;2022-07-19T04:56:50;4.65;;;2.30;;
20138;SDS011;10230;51.502;10.800;2022-07-19T05:00:05;5.32;;;2.30;;
20138;SDS011;10230;51.502;10.800;2022-07-19T05:02:34;5.43;;;4.20;;
20138;SDS011;10230;51.502;10.800;2022-07-19T05:05:04;8.07;;;3.33;;
20138;SDS011;10230;51.502;10.800;2022-07-19T05:07:32;4.47;;;2.75;;
20138;SDS011;10230;51.502;10.800;2022-07-19T05:10:01;3.70;;;3.08;;
20138;SDS011;10230;51.502;10.800;2022-07-19T05:12:29;3.13;;;2.30;;
20138;SDS011;10230;51.502;10.800;2022-07-19T05:14:58;4.97;;;2.30;;
20138;SDS011;10230;51.502;10.800;2022-07-19T05:17:26;3.92;;;2.50;;
20138;SDS011;10230;51.502;10.800;2022-07-19T05:19:55;3.60;;;2.88;;
20138;SDS011;10230;51.502;10.800;2022-07-19T05:22:23;3.42;;;2.58;;
20138;SDS011;10230;51.502;10.800;2022-07-19T05:24:50;8.30;;;3.05;;
20138;SDS011;10230;51.502;10.800;2022-07-19T05:27:17;6.53;;;2.50;;
20138;SDS011;10230;51.502;10.800;2022-07-19T05:29:43;3.22;;;2.67;;
20138;SDS011;10230;51.502;10.800;2022-07-19T05:32:09;4.05;;;2.95;;
20138;SDS011;10230;51.502;10.800;2022-07-19T05:34:35;3.90;;;2.70;;
20138;SDS011;10230;51.502;10.800;2022-07-19T05:37:01;3.28;;;2.10;;
20138;SDS011;10230;51.502;10.800;2022-07-19T05:39:27;4.10;;;2.65;;
20138;SDS011;10230;51.502;10.800;2022-07-19T05:41:53;4.47;;;2.38;;
20138;SDS011;10230;51.502;10.800;2022-07-19T05:44:19;4.50;;;2.15;;
20138;SDS011;10230;51.502;10.800;2022-07-19T05:46:46;2.30;;;2.03;;
20138;SDS011;10230;51.502;10.800;2022-07-19T05:49:13;4.57;;;2.47;;
20138;SDS011;10230;51.502;10.800;2022-07-19T05:51:39;5.18;;;2.30;;
20138;SDS011;10230;51.502;10.800;2022-07-19T05:54:06;4.40;;;2.15;;
20138;SDS011;10230;51.502;10.800;2022-07-19T05:56:32;5.00;;;3.10;;
20138;SDS011;10230;51.502;10.800;2022-07-19T05:58:58;4.30;;;2.83;;
20138;SDS011;10230;51.502;10.800;2022-07-19T06:01:26;7.38;;;3.50;;
20138;SDS011;10230;51.502;10.800;2022-07-19T06:03:53;4.82;;;2.63;;
20138;SDS011;10230;51.502;10.800;2022-07-19T06:06:20;7.40;;;3.30;;
20138;SDS011;10230;51.502;10.800;2022-07-19T06:08:47;6.72;;;3.65;;
20138;SDS011;10230;51.502;10.800;2022-07-19T06:11:14;4.65;;;2.85;;
20138;SDS011;10230;51.502;10.800;2022-07-19T06:13:40;3.30;;;2.40;;
20138;SDS011;10230;51.502;10.800;2022-07-19T06:16:06;8.32;;;2.47;;
20138;SDS011;10230;51.502;10.800;2022-07-19T06:18:33;3.50;;;1.92;;
20138;SDS011;10230;51.502;10.800;2022-07-19T06:21:00;4.25;;;2.22;;
20138;SDS011;10230;51.502;10.800;2022-07-19T06:23:26;4.72;;;2.35;;
20138;SDS011;10230;51.502;10.800;2022-07-19T06:25:52;4.70;;;2.60;;
20138;SDS011;10230;51.502;10.800;2022-07-19T06:28:18;8.00;;;2.40;;
20138;SDS011;10230;51.502;10.800;2022-07-19T06:30:44;5.60;;;3.15;;
20138;SDS011;10230;51.502;10.800;2022-07-19T06:33:10;4.10;;;2.42;;
20138;SDS011;10230;51.502;10.800;2022-07-19T06:35:36;7.03;;;2.75;;
20138;SDS011;10230;51.502;10.800;2022-07-19T06:38:02;6.28;;;2.75;;
20138;SDS011;10230;51.502;10.800;2022-07-19T06:40:28;8.63;;;3.65;;
20138;SDS011;10230;51.502;10.800;2022-07-19T06:42:54;6.72;;;2.70;;
20138;SDS011;10230;51.502;10.800;2022-07-19T06:45:20;5.22;;;2.70;;
20138;SDS011;10230;51.502;10.800;2022-07-19T06:47:46;5.80;;;2.85;;
20138;SDS011;10230;51.502;10.800;2022-07-19T06:50:12;8.07;;;3.15;;
20138;SDS011;10230;51.502;10.800;2022-07-19T06:52:38;8.57;;;2.50;;
20138;SDS011;10230;51.502;10.800;2022-07-19T06:55:05;5.18;;;2.97;;
20138;SDS011;10230;51.502;10.800;2022-07-19T06:57:31;12.13;;;3.20;;
20138;SDS011;10230;51.502;10.800;2022-07-19T06:59:57;3.65;;;2.33;;
20138;SDS011;10230;51.502;10.800;2022-07-19T07:02:23;9.48;;;2.25;;
20138;SDS011;10230;51.502;10.800;2022-07-19T07:04:49;7.90;;;2.85;;
20138;SDS011;10230;51.502;10.800;2022-07-19T07:07:15;6.43;;;3.22;;
20138;SDS011;10230;51.502;10.800;2022-07-19T07:09:41;5.50;;;2.40;;
20138;SDS011;10230;51.502;10.800;2022-07-19T07:12:07;3.95;;;2.25;;
20138;SDS011;10230;51.502;10.800;2022-07-19T07:14:34;8.15;;;2.40;;
20138;SDS011;10230;51.502;10.800;2022-07-19T07:17:00;7.35;;;2.53;;
20138;SDS011;10230;51.502;10.800;2022-07-19T07:19:26;3.63;;;2.13;;
20138;SDS011;10230;51.502;10.800;2022-07-19T07:21:52;6.32;;;2.15;;
20138;SDS011;10230;51.502;10.800;2022-07-19T07:24:18;4.72;;;2.28;;
20138;SDS011;10230;51.502;10.800;2022-07-19T07:26:45;7.30;;;2.55;;
20138;SDS011;10230;51.502;10.800;2022-07-19T07:29:11;5.05;;;2.40;;
20138;SDS011;10230;51.502;10.800;2022-07-19T07:31:37;3.67;;;2.28;;
20138;SDS011;10230;51.502;10.800;2022-07-19T07:34:03;5.93;;;2.50;;
20138;SDS011;10230;51.502;10.800;2022-07-19T07:36:29;4.25;;;2.60;;
20138;SDS011;10230;51.502;10.800;2022-07-19T07:38:55;10.05;;;2.83;;
20138;SDS011;10230;51.502;10.800;2022-07-19T07:41:21;4.32;;;2.25;;
20138;SDS011;10230;51.502;10.800;2022-07-19T07:43:47;4.45;;;2.40;;
20138;SDS011;10230;51.502;10.800;2022-07-19T07:46:13;5.05;;;2.30;;
20138;SDS011;10230;51.502;10.800;2022-07-19T07:48:39;9.13;;;2.30;;
20138;SDS011;10230;51.502;10.800;2022-07-19T07:51:05;6.95;;;2.28;;
20138;SDS011;10230;51.502;10.800;2022-07-19T07:53:31;3.08;;;2.20;;
20138;SDS011;10230;51.502;10.800;2022-07-19T07:55:57;5.20;;;2.08;;
20138;SDS011;10230;51.502;10.800;2022-07-19T07:58:23;4.57;;;2.17;;
20138;SDS011;10230;51.502;10.800;2022-07-19T08:00:50;5.78;;;2.35;;
20138;SDS011;10230;51.502;10.800;2022-07-19T08:03:16;5.70;;;1.92;;
20138;SDS011;10230;51.502;10.800;2022-07-19T08:05:42;5.30;;;2.00;;
20138;SDS011;10230;51.502;10.800;2022-07-19T08:08:13;2.78;;;2.08;;
20138;SDS011;10230;51.502;10.800;2022-07-19T08:10:39;4.22;;;2.03;;
20138;SDS011;10230;51.502;10.800;2022-07-19T08:13:05;5.63;;;1.95;;
20138;SDS011;10230;51.502;10.800;2022-07-19T08:15:32;7.15;;;2.47;;
20138;SDS011;10230;51.502;10.800;2022-07-19T08:17:58;4.75;;;1.85;;
20138;SDS011;10230;51.502;10.800;2022-07-19T08:20:24;3.85;;;2.05;;
20138;SDS011;10230;51.502;10.800;2022-07-19T08:22:50;5.80;;;1.80;;
20138;SDS011;10230;51.502;10.800;2022-07-19T08:25:16;5.75;;;2.35;;
20138;SDS011;10230;51.502;10.800;2022-07-19T08:27:42;4.80;;;2.42;;
20138;SDS011;10230;51.502;10.800;2022-07-19T08:30:09;3.85;;;2.90;;
20138;SDS011;10230;51.502;10.800;2022-07-19T08:32:35;8.48;;;2.83;;
20138;SDS011;10230;51.502;10.800;2022-07-19T08:35:02;5.32;;;1.73;;
20138;SDS011;10230;51.502;10.800;2022-07-19T10:01:34;4.63;;;4.18;;
20138;SDS011;10230;51.502;10.800;2022-07-19T10:04:02;4.78;;;4.38;;
20138;SDS011;10230;51.502;10.800;2022-07-19T10:06:32;6.68;;;4.05;;
20138;SDS011;10230;51.502;10.800;2022-07-19T10:08:58;5.68;;;3.47;;
20138;SDS011;10230;51.502;10.800;2022-07-19T10:11:25;3.67;;;3.30;;
20138;SDS011;10230;51.502;10.800;2022-07-19T10:13:51;3.70;;;3.40;;
20138;SDS011;10230;51.502;10.800;2022-07-19T10:16:23;3.50;;;3.30;;
20138;SDS011;10230;51.502;10.800;2022-07-19T10:19:02;3.90;;;3.60;;
20138;SDS011;10230;51.502;10.800;2022-07-19T10:21:29;4.18;;;3.78;;
20138;SDS011;10230;51.502;10.800;2022-07-19T10:23:56;3.78;;;3.50;;
20138;SDS011;10230;51.502;10.800;2022-07-19T10:26:37;5.15;;;3.70;;
20138;SDS011;10230;51.502;10.800;2022-07-19T10:29:12;4.32;;;3.97;;
20138;SDS011;10230;51.502;10.800;2022-07-19T10:31:41;7.30;;;5.20;;
20138;SDS011;10230;51.502;10.800;2022-07-19T10:34:09;5.30;;;5.00;;
20138;SDS011;10230;51.502;10.800;2022-07-19T10:36:45;5.70;;;5.30;;
20138;SDS011;10230;51.502;10.800;2022-07-19T10:48:06;4.30;;;3.95;;
20138;SDS011;10230;51.502;10.800;2022-07-19T10:52:36;4.60;;;4.20;;
20138;SDS011;10230;51.502;10.800;2022-07-19T11:00:30;4.50;;;4.30;;
20138;SDS011;10230;51.502;10.800;2022-07-19T11:05:46;4.90;;;4.50;;
20138;SDS011;10230;51.502;10.800;2022-07-19T11:08:17;5.35;;;4.90;;
20138;SDS011;10230;51.502;10.800;2022-07-19T11:10:44;5.40;;;5.10;;
20138;SDS011;10230;51.502;10.800;2022-07-19T11:13:15;5.15;;;4.95;;
20138;SDS011;10230;51.502;10.800;2022-07-19T11:15:41;5.72;;;5.40;;
20138;SDS011;10230;51.502;10.800;2022-07-19T11:18:18;6.07;;;5.78;;
20138;SDS011;10230;51.502;10.800;2022-07-19T11:20:44;6.55;;;6.15;;
20138;SDS011;10230;51.502;10.800;2022-07-19T11:23:09;6.45;;;5.93;;
20138;SDS011;10230;51.502;10.800;2022-07-19T11:25:43;5.90;;;5.50;;
20138;SDS011;10230;51.502;10.800;2022-07-19T11:28:20;5.95;;;5.55;;
20138;SDS011;10230;51.502;10.800;2022-07-19T11:30:47;5.60;;;5.25;;
20138;SDS011;10230;51.502;10.800;2022-07-19T11:33:15;5.35;;;5.00;;
20138;SDS011;10230;51.502;10.800;2022-07-19T11:35:52;5.15;;;4.80;;
20138;SDS011;10230;51.502;10.800;2022-07-19T11:38:22;4.30;;;4.00;;
20138;SDS011;10230;51.502;10.800;2022-07-19T11:40:48;4.40;;;4.10;;
20138;SDS011;10230;51.502;10.800;2022-07-19T11:43:14;5.35;;;4.25;;
20138;SDS011;10230;51.502;10.800;2022-07-19T11:45:47;9.27;;;4.07;;
20138;SDS011;10230;51.502;10.800;2022-07-19T11:48:24;5.60;;;3.40;;
20138;SDS011;10230;51.502;10.800;2022-07-19T11:51:04;3.63;;;3.40;;
20138;SDS011;10230;51.502;10.800;2022-07-19T11:53:31;3.10;;;2.90;;
20138;SDS011;10230;51.502;10.800;2022-07-19T11:55:59;3.92;;;3.38;;
20138;SDS011;10230;51.502;10.800;2022-07-19T11:58:25;3.40;;;3.00;;
20138;SDS011;10230;51.502;10.800;2022-07-19T12:00:52;3.78;;;2.72;;
20138;SDS011;10230;51.502;10.800;2022-07-19T12:03:24;2.60;;;2.40;;
20138;SDS011;10230;51.502;10.800;2022-07-19T12:05:56;3.42;;;2.55;;
20138;SDS011;10230;51.502;10.800;2022-07-19T12:08:31;2.50;;;2.20;;
20138;SDS011;10230;51.502;10.800;2022-07-19T12:10:58;3.72;;;2.47;;
20138;SDS011;10230;51.502;10.800;2022-07-19T12:15:57;3.50;;;1.88;;
20138;SDS011;10230;51.502;10.800;2022-07-19T12:18:44;3.03;;;1.70;;
20138;SDS011;10230;51.502;10.800;2022-07-19T12:26:30;2.58;;;1.90;;
20138;SDS011;10230;51.502;10.800;2022-07-19T12:28:56;5.07;;;2.03;;
20138;SDS011;10230;51.502;10.800;2022-07-19T12:31:22;2.58;;;1.60;;
20138;SDS011;10230;51.502;10.800;2022-07-19T12:33:57;3.70;;;1.55;;
20138;SDS011;10230;51.502;10.800;2022-07-19T12:36:32;3.92;;;1.98;;
20138;SDS011;10230;51.502;10.800;2022-07-19T12:38:58;2.97;;;1.67;;
20138;SDS011;10230;51.502;10.800;2022-07-19T12:41:23;5.38;;;1.85;;
20138;SDS011;10230;51.502;10.800;2022-07-19T12:43:49;3.72;;;2.03;;
20138;SDS011;10230;51.502;10.800;2022-07-19T12:46:15;2.15;;;1.75;;
20138;SDS011;10230;51.502;10.800;2022-07-19T12:48:41;4.68;;;2.10;;
20138;SDS011;10230;51.502;10.800;2022-07-19T12:51:06;6.05;;;2.00;;
20138;SDS011;10230;51.502;10.800;2022-07-19T12:53:32;6.38;;;2.08;;
20138;SDS011;10230;51.502;10.800;2022-07-19T12:55:58;5.15;;;2.22;;
20138;SDS011;10230;51.502;10.800;2022-07-19T12:58:23;3.13;;;2.10;;
20138;SDS011;10230;51.502;10.800;2022-07-19T13:01:07;5.35;;;1.83;;
20138;SDS011;10230;51.502;10.800;2022-07-19T13:03:37;7.97;;;2.35;;
20138;SDS011;10230;51.502;10.800;2022-07-19T13:06:04;5.88;;;2.10;;
20138;SDS011;10230;51.502;10.800;2022-07-19T13:08:30;4.35;;;1.83;;
20138;SDS011;10230;51.502;10.800;2022-07-19T20:09:34;10.77;;;3.10;;
20138;SDS011;10230;51.502;10.800;2022-07-19T20:12:00;14.15;;;3.63;;
20138;SDS011;10230;51.502;10.800;2022-07-19T20:14:27;33.25;;;5.22;;
20138;SDS011;10230;51.502;10.800;2022-07-19T20:16:53;45.03;;;6.45;;
20138;SDS011;10230;51.502;10.800;2022-07-19T20:19:19;23.42;;;4.97;;
20138;SDS011;10230;51.502;10.800;2022-07-19T20:21:45;9.57;;;3.45;;
20138;SDS011;10230;51.502;10.800;2022-07-19T20:24:11;15.02;;;4.10;;
20138;SDS011;10230;51.502;10.800;2022-07-19T20:26:37;21.63;;;4.70;;
20138;SDS011;10230;51.502;10.800;2022-07-19T20:29:03;10.80;;;3.08;;
20138;SDS011;10230;51.502;10.800;2022-07-19T20:31:30;9.02;;;2.95;;
20138;SDS011;10230;51.502;10.800;2022-07-19T20:33:57;8.57;;;2.67;;
20138;SDS011;10230;51.502;10.800;2022-07-19T20:36:23;7.53;;;2.60;;
20138;SDS011;10230;51.502;10.800;2022-07-19T20:38:49;11.05;;;2.80;;
20138;SDS011;10230;51.502;10.800;2022-07-19T20:41:15;13.43;;;2.90;;
20138;SDS011;10230;51.502;10.800;2022-07-19T20:43:41;8.40;;;3.05;;
20138;SDS011;10230;51.502;10.800;2022-07-19T20:46:08;6.35;;;2.63;;
20138;SDS011;10230;51.502;10.800;2022-07-19T20:48:34;8.38;;;3.53;;
20138;SDS011;10230;51.502;10.800;2022-07-19T20:51:00;12.20;;;2.80;;
20138;SDS011;10230;51.502;10.800;2022-07-19T20:53:26;7.85;;;2.92;;
20138;SDS011;10230;51.502;10.800;2022-07-19T20:55:52;20.33;;;4.35;;
20138;SDS011;10230;51.502;10.800;2022-07-19T20:58:18;21.52;;;4.68;;
20138;SDS011;10230;51.502;10.800;2022-07-19T21:00:45;15.95;;;3.42;;
20138;SDS011;10230;51.502;10.800;2022-07-19T21:03:11;25.13;;;5.22;;
20138;SDS011;10230;51.502;10.800;2022-07-19T21:05:38;32.05;;;5.35;;
20138;SDS011;10230;51.502;10.800;2022-07-19T21:08:05;8.18;;;3.20;;
20138;SDS011;10230;51.502;10.800;2022-07-19T21:10:31;23.15;;;4.75;;
20138;SDS011;10230;51.502;10.800;2022-07-19T21:12:58;21.23;;;4.15;;
20138;SDS011;10230;51.502;10.800;2022-07-19T21:15:25;15.65;;;3.60;;
20138;SDS011;10230;51.502;10.800;2022-07-19T21:17:51;16.08;;;3.63;;
20138;SDS011;10230;51.502;10.800;2022-07-19T21:20:17;8.20;;;3.00;;
20138;SDS011;10230;51.502;10.800;2022-07-19T21:22:43;9.20;;;3.00;;
20138;SDS011;10230;51.502;10.800;2022-07-19T21:25:11;8.40;;;3.22;;
20138;SDS011;10230;51.502;10.800;2022-07-19T21:27:37;11.88;;;3.38;;
20138;SDS011;10230;51.502;10.800;2022-07-19T21:30:03;8.75;;;3.30;;
20138;SDS011;10230;51.502;10.800;2022-07-19T21:32:30;8.65;;;3.30;;
20138;SDS011;10230;51.502;10.800;2022-07-19T21:34:56;10.43;;;3.10;;
20138;SDS011;10230;51.502;10.800;2022-07-19T21:37:22;11.10;;;3.13;;
20138;SDS011;10230;51.502;10.800;2022-07-19T21:39:49;6.47;;;3.30;;
20138;SDS011;10230;51.502;10.800;2022-07-19T21:42:15;12.02;;;3.58;;
20138;SDS011;10230;51.502;10.800;2022-07-19T21:44:41;31.40;;;4.22;;
20138;SDS011;10230;51.502;10.800;2022-07-19T21:47:07;36.00;;;5.55;;
20138;SDS011;10230;51.502;10.800;2022-07-19T21:49:34;86.47;;;10.48;;
20138;SDS011;10230;51.502;10.800;2022-07-19T21:52:00;65.60;;;6.97;;
20138;SDS011;10230;51.502;10.800;2022-07-19T21:54:26;51.33;;;7.28;;
20138;SDS011;10230;51.502;10.800;2022-07-19T21:56:53;35.92;;;6.78;;
20138;SDS011;10230;51.502;10.800;2022-07-19T21:59:19;21.77;;;6.05;;
20138;SDS011;10230;51.502;10.800;2022-07-19T22:01:45;27.75;;;5.40;;
20138;SDS011;10230;51.502;10.800;2022-07-19T22:04:11;24.90;;;4.60;;
20138;SDS011;10230;51.502;10.800;2022-07-19T22:06:37;17.27;;;4.32;;
20138;SDS011;10230;51.502;10.800;2022-07-19T22:09:05;18.00;;;4.55;;
20138;SDS011;10230;51.502;10.800;2022-07-19T22:11:32;28.92;;;4.75;;
20138;SDS011;10230;51.502;10.800;2022-07-19T22:13:58;23.08;;;4.65;;
20138;SDS011;10230;51.502;10.800;2022-07-19T22:16:25;24.50;;;4.50;;
20138;SDS011;10230;51.502;10.800;2022-07-19T22:18:52;15.35;;;3.90;;
20138;SDS011;10230;51.502;10.800;2022-07-19T22:21:18;14.63;;;3.80;;
20138;SDS011;10230;51.502;10.800;2022-07-19T22:23:44;18.88;;;4.30;;
20138;SDS011;10230;51.502;10.800;2022-07-19T22:26:10;11.00;;;3.25;;
20138;SDS011;10230;51.502;10.800;2022-07-19T22:28:36;8.98;;;3.30;;
20138;SDS011;10230;51.502;10.800;2022-07-19T22:31:03;5.63;;;3.17;;
20138;SDS011;10230;51.502;10.800;2022-07-19T22:33:29;8.63;;;3.55;;
20138;SDS011;10230;51.502;10.800;2022-07-19T22:35:55;7.22;;;3.78;;
20138;SDS011;10230;51.502;10.800;2022-07-19T22:38:21;6.30;;;3.33;;
20138;SDS011;10230;51.502;10.800;2022-07-19T22:40:47;9.13;;;4.00;;
20138;SDS011;10230;51.502;10.800;2022-07-19T22:43:13;5.93;;;3.75;;
20138;SDS011;10230;51.502;10.800;2022-07-19T22:45:40;4.47;;;3.38;;
20138;SDS011;10230;51.502;10.800;2022-07-19T22:48:06;8.63;;;2.90;;
20138;SDS011;10230;51.502;10.800;2022-07-19T22:50:36;6.28;;;2.97;;
20138;SDS011;10230;51.502;10.800;2022-07-19T22:53:03;8.23;;;3.20;;
20138;SDS011;10230;51.502;10.800;2022-07-19T22:55:29;7.05;;;2.70;;
20138;SDS011;10230;51.502;10.800;2022-07-19T22:57:55;4.85;;;3.03;;
20138;SDS011;10230;51.502;10.800;2022-07-19T23:00:21;6.78;;;3.65;;
20138;SDS011;10230;51.502;10.800;2022-07-19T23:02:47;7.65;;;3.60;;
20138;SDS011;10230;51.502;10.800;2022-07-19T23:05:14;7.03;;;3.55;;
20138;SDS011;10230;51.502;10.800;2022-07-19T23:07:40;6.70;;;3.30;;
20138;SDS011;10230;51.502;10.800;2022-07-19T23:10:06;4.32;;;2.95;;
20138;SDS011;10230;51.502;10.800;2022-07-19T23:12:32;5.85;;;3.22;;
20138;SDS011;10230;51.502;10.800;2022-07-19T23:14:59;4.97;;;3.10;;
20138;SDS011;10230;51.502;10.800;2022-07-19T23:17:25;5.53;;;3.10;;
20138;SDS011;10230;51.502;10.800;2022-07-19T23:19:51;6.57;;;3.17;;
20138;SDS011;10230;51.502;10.800;2022-07-19T23:22:17;7.05;;;3.08;;
20138;SDS011;10230;51.502;10.800;2022-07-19T23:24:43;6.97;;;3.45;;
20138;SDS011;10230;51.502;10.800;2022-07-19T23:27:09;6.25;;;3.45;;
20138;SDS011;10230;51.502;10.800;2022-07-19T23:29:35;12.35;;;3.95;;
20138;SDS011;10230;51.502;10.800;2022-07-19T23:32:02;20.33;;;4.45;;
20138;SDS011;10230;51.502;10.800;2022-07-19T23:34:28;6.57;;;2.80;;